sensor_id;sensor_type;location;lat;lon;timestamp;P1;durP1;ratioP1;P2;durP2;ratioP2
4555;SDS011;2290;48.674;9.018;2024-03-17T00:02:06;4.30;;;2.43;;
4555;SDS011;2290;48.674;9.018;2024-03-17T00:04:32;5.10;;;2.50;;
4555;SDS011;2290;48.674;9.018;2024-03-17T00:06:57;3.70;;;2.20;;
4555;SDS011;2290;48.674;9.018;2024-03-17T00:09:23;4.23;;;2.30;;
4555;SDS011;2290;48.674;9.018;2024-03-17T00:11:49;5.67;;;2.50;;
4555;SDS011;2290;48.674;9.018;2024-03-17T00:14:15;4.23;;;2.50;;
4555;SDS011;2290;48.674;9.018;2024-03-17T00:16:41;2.87;;;2.40;;
4555;SDS011;2290;48.674;9.018;2024-03-17T00:19:07;4.27;;;2.50;;
4555;SDS011;2290;48.674;9.018;2024-03-17T00:21:35;3.47;;;2.50;;
4555;SDS011;2290;48.674;9.018;2024-03-17T00:24:00;3.10;;;2.47;;
4555;SDS011;2290;48.674;9.018;2024-03-17T00:26:28;4.23;;;2.50;;
4555;SDS011;2290;48.674;9.018;2024-03-17T00:28:54;3.10;;;2.70;;
4555;SDS011;2290;48.674;9.018;2024-03-17T00:31:22;3.77;;;2.50;;
4555;SDS011;2290;48.674;9.018;2024-03-17T00:33:53;3.23;;;2.50;;
4555;SDS011;2290;48.674;9.018;2024-03-17T00:36:20;3.80;;;3.37;;
4555;SDS011;2290;48.674;9.018;2024-03-17T00:38:45;4.93;;;3.17;;
4555;SDS011;2290;48.674;9.018;2024-03-17T00:41:17;3.23;;;2.90;;
4555;SDS011;2290;48.674;9.018;2024-03-17T00:43:44;11.73;;;4.20;;
4555;SDS011;2290;48.674;9.018;2024-03-17T00:46:10;3.37;;;2.80;;
4555;SDS011;2290;48.674;9.018;2024-03-17T00:48:35;4.43;;;2.97;;
4555;SDS011;2290;48.674;9.018;2024-03-17T00:51:01;3.80;;;2.93;;
4555;SDS011;2290;48.674;9.018;2024-03-17T00:53:27;9.00;;;3.57;;
4555;SDS011;2290;48.674;9.018;2024-03-17T00:55:54;4.77;;;3.30;;
4555;SDS011;2290;48.674;9.018;2024-03-17T00:58:23;4.27;;;3.07;;
4555;SDS011;2290;48.674;9.018;2024-03-17T01:00:49;4.40;;;2.60;;
4555;SDS011;2290;48.674;9.018;2024-03-17T01:03:15;4.37;;;3.00;;
4555;SDS011;2290;48.674;9.018;2024-03-17T01:05:41;3.63;;;2.77;;
4555;SDS011;2290;48.674;9.018;2024-03-17T01:08:09;5.73;;;2.90;;
4555;SDS011;2290;48.674;9.018;2024-03-17T01:10:38;4.10;;;3.00;;
4555;SDS011;2290;48.674;9.018;2024-03-17T01:13:05;3.60;;;2.60;;
4555;SDS011;2290;48.674;9.018;2024-03-17T01:15:32;4.70;;;3.40;;
4555;SDS011;2290;48.674;9.018;2024-03-17T01:17:58;4.70;;;3.20;;
4555;SDS011;2290;48.674;9.018;2024-03-17T01:20:25;6.13;;;3.17;;
4555;SDS011;2290;48.674;9.018;2024-03-17T01:22:51;4.33;;;3.03;;
4555;SDS011;2290;48.674;9.018;2024-03-17T01:25:16;5.37;;;4.20;;
4555;SDS011;2290;48.674;9.018;2024-03-17T01:27:43;3.90;;;3.33;;
4555;SDS011;2290;48.674;9.018;2024-03-17T01:30:10;5.57;;;3.50;;
4555;SDS011;2290;48.674;9.018;2024-03-17T01:32:36;3.97;;;3.10;;
4555;SDS011;2290;48.674;9.018;2024-03-17T01:35:01;5.07;;;3.40;;
4555;SDS011;2290;48.674;9.018;2024-03-17T01:37:27;4.93;;;2.77;;
4555;SDS011;2290;48.674;9.018;2024-03-17T01:39:56;5.27;;;3.50;;
4555;SDS011;2290;48.674;9.018;2024-03-17T01:42:26;9.00;;;3.50;;
4555;SDS011;2290;48.674;9.018;2024-03-17T01:44:52;5.83;;;3.63;;
4555;SDS011;2290;48.674;9.018;2024-03-17T01:47:17;7.07;;;3.70;;
4555;SDS011;2290;48.674;9.018;2024-03-17T01:49:47;5.17;;;3.70;;
4555;SDS011;2290;48.674;9.018;2024-03-17T01:52:15;5.70;;;3.90;;
4555;SDS011;2290;48.674;9.018;2024-03-17T01:54:43;6.53;;;4.17;;
4555;SDS011;2290;48.674;9.018;2024-03-17T01:57:13;5.80;;;3.97;;
4555;SDS011;2290;48.674;9.018;2024-03-17T01:59:38;8.57;;;4.03;;
4555;SDS011;2290;48.674;9.018;2024-03-17T02:02:05;7.90;;;4.10;;
4555;SDS011;2290;48.674;9.018;2024-03-17T02:04:31;4.60;;;3.73;;
4555;SDS011;2290;48.674;9.018;2024-03-17T02:06:56;7.07;;;3.83;;
4555;SDS011;2290;48.674;9.018;2024-03-17T02:09:22;5.90;;;3.57;;
4555;SDS011;2290;48.674;9.018;2024-03-17T02:11:48;6.50;;;4.60;;
4555;SDS011;2290;48.674;9.018;2024-03-17T02:14:13;4.90;;;3.73;;
4555;SDS011;2290;48.674;9.018;2024-03-17T02:16:42;6.40;;;3.87;;
4555;SDS011;2290;48.674;9.018;2024-03-17T02:19:08;5.70;;;4.03;;
4555;SDS011;2290;48.674;9.018;2024-03-17T02:21:35;10.03;;;4.30;;
4555;SDS011;2290;48.674;9.018;2024-03-17T02:24:03;5.80;;;4.23;;
4555;SDS011;2290;48.674;9.018;2024-03-17T02:26:28;7.60;;;4.50;;
4555;SDS011;2290;48.674;9.018;2024-03-17T02:28:54;5.60;;;4.70;;
4555;SDS011;2290;48.674;9.018;2024-03-17T02:31:20;6.17;;;4.60;;
4555;SDS011;2290;48.674;9.018;2024-03-17T02:33:47;6.37;;;4.37;;
4555;SDS011;2290;48.674;9.018;2024-03-17T02:36:13;7.80;;;4.60;;
4555;SDS011;2290;48.674;9.018;2024-03-17T02:38:39;6.40;;;4.20;;
4555;SDS011;2290;48.674;9.018;2024-03-17T02:41:23;7.80;;;4.77;;
4555;SDS011;2290;48.674;9.018;2024-03-17T02:43:49;5.60;;;4.00;;
4555;SDS011;2290;48.674;9.018;2024-03-17T02:46:16;7.57;;;4.50;;
4555;SDS011;2290;48.674;9.018;2024-03-17T02:48:47;7.50;;;4.13;;
4555;SDS011;2290;48.674;9.018;2024-03-17T02:51:17;5.37;;;4.60;;
4555;SDS011;2290;48.674;9.018;2024-03-17T02:53:44;5.70;;;3.90;;
4555;SDS011;2290;48.674;9.018;2024-03-17T02:56:11;6.30;;;4.30;;
4555;SDS011;2290;48.674;9.018;2024-03-17T02:58:38;6.30;;;3.97;;
4555;SDS011;2290;48.674;9.018;2024-03-17T03:01:05;6.97;;;4.60;;
4555;SDS011;2290;48.674;9.018;2024-03-17T03:03:31;9.80;;;4.30;;
4555;SDS011;2290;48.674;9.018;2024-03-17T03:05:59;5.87;;;4.17;;
4555;SDS011;2290;48.674;9.018;2024-03-17T03:08:40;7.03;;;4.83;;
4555;SDS011;2290;48.674;9.018;2024-03-17T03:11:07;6.43;;;4.40;;
4555;SDS011;2290;48.674;9.018;2024-03-17T03:13:38;5.73;;;4.13;;
4555;SDS011;2290;48.674;9.018;2024-03-17T03:16:06;10.67;;;4.70;;
4555;SDS011;2290;48.674;9.018;2024-03-17T03:18:33;8.47;;;5.13;;
4555;SDS011;2290;48.674;9.018;2024-03-17T03:20:59;9.27;;;4.90;;
4555;SDS011;2290;48.674;9.018;2024-03-17T03:23:25;8.00;;;5.50;;
4555;SDS011;2290;48.674;9.018;2024-03-17T03:25:55;5.93;;;4.33;;
4555;SDS011;2290;48.674;9.018;2024-03-17T03:28:25;7.37;;;4.30;;
4555;SDS011;2290;48.674;9.018;2024-03-17T03:30:52;7.20;;;5.17;;
4555;SDS011;2290;48.674;9.018;2024-03-17T03:33:19;7.30;;;4.17;;
4555;SDS011;2290;48.674;9.018;2024-03-17T03:35:45;7.50;;;4.37;;
4555;SDS011;2290;48.674;9.018;2024-03-17T03:38:11;6.70;;;4.33;;
4555;SDS011;2290;48.674;9.018;2024-03-17T03:40:38;5.50;;;4.43;;
4555;SDS011;2290;48.674;9.018;2024-03-17T03:43:04;6.03;;;4.40;;
4555;SDS011;2290;48.674;9.018;2024-03-17T03:45:30;6.53;;;4.67;;
4555;SDS011;2290;48.674;9.018;2024-03-17T03:47:56;6.37;;;4.87;;
4555;SDS011;2290;48.674;9.018;2024-03-17T03:50:22;8.63;;;4.90;;
4555;SDS011;2290;48.674;9.018;2024-03-17T03:52:48;11.43;;;5.00;;
4555;SDS011;2290;48.674;9.018;2024-03-17T03:55:15;6.67;;;4.70;;
4555;SDS011;2290;48.674;9.018;2024-03-17T03:57:42;7.77;;;4.60;;
4555;SDS011;2290;48.674;9.018;2024-03-17T04:00:10;7.43;;;5.97;;
4555;SDS011;2290;48.674;9.018;2024-03-17T04:02:46;8.70;;;5.13;;
4555;SDS011;2290;48.674;9.018;2024-03-17T04:05:13;6.50;;;4.50;;
4555;SDS011;2290;48.674;9.018;2024-03-17T04:07:39;8.00;;;4.40;;
4555;SDS011;2290;48.674;9.018;2024-03-17T04:10:08;9.07;;;4.90;;
4555;SDS011;2290;48.674;9.018;2024-03-17T04:12:34;6.80;;;4.20;;
4555;SDS011;2290;48.674;9.018;2024-03-17T04:15:00;8.70;;;4.80;;
4555;SDS011;2290;48.674;9.018;2024-03-17T04:17:26;6.23;;;4.17;;
4555;SDS011;2290;48.674;9.018;2024-03-17T04:19:52;9.87;;;5.03;;
4555;SDS011;2290;48.674;9.018;2024-03-17T04:22:21;8.50;;;4.90;;
4555;SDS011;2290;48.674;9.018;2024-03-17T04:24:47;6.40;;;4.20;;
4555;SDS011;2290;48.674;9.018;2024-03-17T04:27:18;6.20;;;4.50;;
4555;SDS011;2290;48.674;9.018;2024-03-17T04:29:52;6.70;;;4.20;;
4555;SDS011;2290;48.674;9.018;2024-03-17T04:32:20;7.30;;;4.67;;
4555;SDS011;2290;48.674;9.018;2024-03-17T04:34:46;7.53;;;4.33;;
4555;SDS011;2290;48.674;9.018;2024-03-17T04:37:12;8.33;;;5.00;;
4555;SDS011;2290;48.674;9.018;2024-03-17T04:39:38;7.00;;;4.70;;
4555;SDS011;2290;48.674;9.018;2024-03-17T04:42:05;6.73;;;4.90;;
4555;SDS011;2290;48.674;9.018;2024-03-17T04:44:31;7.20;;;4.57;;
4555;SDS011;2290;48.674;9.018;2024-03-17T04:46:58;7.43;;;4.30;;
4555;SDS011;2290;48.674;9.018;2024-03-17T04:49:24;6.27;;;4.37;;
4555;SDS011;2290;48.674;9.018;2024-03-17T04:51:50;6.40;;;4.50;;
4555;SDS011;2290;48.674;9.018;2024-03-17T04:54:15;6.23;;;4.37;;
4555;SDS011;2290;48.674;9.018;2024-03-17T04:56:41;9.27;;;4.87;;
4555;SDS011;2290;48.674;9.018;2024-03-17T04:59:06;7.37;;;4.73;;
4555;SDS011;2290;48.674;9.018;2024-03-17T05:01:34;8.87;;;5.40;;
4555;SDS011;2290;48.674;9.018;2024-03-17T05:04:03;11.87;;;5.50;;
4555;SDS011;2290;48.674;9.018;2024-03-17T05:06:30;9.00;;;5.40;;
4555;SDS011;2290;48.674;9.018;2024-03-17T05:08:57;9.97;;;5.20;;
4555;SDS011;2290;48.674;9.018;2024-03-17T05:11:23;9.17;;;5.27;;
4555;SDS011;2290;48.674;9.018;2024-03-17T05:13:49;8.50;;;5.23;;
4555;SDS011;2290;48.674;9.018;2024-03-17T05:16:15;6.90;;;4.80;;
4555;SDS011;2290;48.674;9.018;2024-03-17T05:18:41;8.73;;;5.00;;
4555;SDS011;2290;48.674;9.018;2024-03-17T05:21:07;7.83;;;5.37;;
4555;SDS011;2290;48.674;9.018;2024-03-17T05:23:34;7.47;;;4.93;;
4555;SDS011;2290;48.674;9.018;2024-03-17T05:26:02;11.07;;;5.10;;
4555;SDS011;2290;48.674;9.018;2024-03-17T05:28:29;8.60;;;5.50;;
4555;SDS011;2290;48.674;9.018;2024-03-17T05:30:57;8.13;;;5.10;;
4555;SDS011;2290;48.674;9.018;2024-03-17T05:33:24;10.00;;;6.27;;
4555;SDS011;2290;48.674;9.018;2024-03-17T05:35:57;8.57;;;4.80;;
4555;SDS011;2290;48.674;9.018;2024-03-17T05:38:26;9.20;;;5.07;;
4555;SDS011;2290;48.674;9.018;2024-03-17T05:40:57;9.73;;;6.33;;
4555;SDS011;2290;48.674;9.018;2024-03-17T05:43:35;10.37;;;6.23;;
4555;SDS011;2290;48.674;9.018;2024-03-17T05:46:02;9.27;;;5.23;;
4555;SDS011;2290;48.674;9.018;2024-03-17T05:48:35;7.53;;;4.70;;
4555;SDS011;2290;48.674;9.018;2024-03-17T05:51:06;7.33;;;5.07;;
4555;SDS011;2290;48.674;9.018;2024-03-17T05:53:33;8.27;;;5.30;;
4555;SDS011;2290;48.674;9.018;2024-03-17T05:56:03;8.87;;;5.03;;
4555;SDS011;2290;48.674;9.018;2024-03-17T05:58:30;11.17;;;5.40;;
4555;SDS011;2290;48.674;9.018;2024-03-17T06:00:56;7.67;;;4.97;;
4555;SDS011;2290;48.674;9.018;2024-03-17T06:03:23;8.50;;;5.03;;
4555;SDS011;2290;48.674;9.018;2024-03-17T06:05:51;7.90;;;4.90;;
4555;SDS011;2290;48.674;9.018;2024-03-17T06:08:18;8.17;;;5.37;;
4555;SDS011;2290;48.674;9.018;2024-03-17T06:10:48;8.07;;;5.20;;
4555;SDS011;2290;48.674;9.018;2024-03-17T06:13:15;8.27;;;5.27;;
4555;SDS011;2290;48.674;9.018;2024-03-17T06:15:42;10.77;;;5.60;;
4555;SDS011;2290;48.674;9.018;2024-03-17T06:18:12;9.97;;;4.83;;
4555;SDS011;2290;48.674;9.018;2024-03-17T06:20:39;7.93;;;4.73;;
4555;SDS011;2290;48.674;9.018;2024-03-17T06:23:07;9.87;;;5.00;;
4555;SDS011;2290;48.674;9.018;2024-03-17T06:25:38;7.40;;;4.60;;
4555;SDS011;2290;48.674;9.018;2024-03-17T06:28:11;6.20;;;4.60;;
4555;SDS011;2290;48.674;9.018;2024-03-17T06:30:42;8.43;;;4.87;;
4555;SDS011;2290;48.674;9.018;2024-03-17T06:33:11;6.57;;;4.73;;
4555;SDS011;2290;48.674;9.018;2024-03-17T06:35:38;8.00;;;5.20;;
4555;SDS011;2290;48.674;9.018;2024-03-17T06:38:05;8.43;;;5.07;;
4555;SDS011;2290;48.674;9.018;2024-03-17T06:40:35;8.67;;;5.00;;
4555;SDS011;2290;48.674;9.018;2024-03-17T06:43:02;10.10;;;5.80;;
4555;SDS011;2290;48.674;9.018;2024-03-17T06:45:28;11.83;;;6.77;;
4555;SDS011;2290;48.674;9.018;2024-03-17T06:47:53;9.37;;;5.90;;
4555;SDS011;2290;48.674;9.018;2024-03-17T06:50:20;7.63;;;5.00;;
4555;SDS011;2290;48.674;9.018;2024-03-17T06:52:46;8.20;;;5.37;;
4555;SDS011;2290;48.674;9.018;2024-03-17T06:55:14;8.20;;;5.33;;
4555;SDS011;2290;48.674;9.018;2024-03-17T06:57:42;8.97;;;5.40;;
4555;SDS011;2290;48.674;9.018;2024-03-17T07:00:12;8.33;;;5.80;;
4555;SDS011;2290;48.674;9.018;2024-03-17T07:02:41;11.57;;;6.40;;
4555;SDS011;2290;48.674;9.018;2024-03-17T07:05:11;9.80;;;5.80;;
4555;SDS011;2290;48.674;9.018;2024-03-17T07:07:41;10.10;;;5.30;;
4555;SDS011;2290;48.674;9.018;2024-03-17T07:10:08;10.00;;;6.00;;
4555;SDS011;2290;48.674;9.018;2024-03-17T07:12:36;11.10;;;5.97;;
4555;SDS011;2290;48.674;9.018;2024-03-17T07:15:02;10.97;;;6.20;;
4555;SDS011;2290;48.674;9.018;2024-03-17T07:17:28;13.23;;;7.10;;
4555;SDS011;2290;48.674;9.018;2024-03-17T07:19:53;11.23;;;6.73;;
4555;SDS011;2290;48.674;9.018;2024-03-17T07:22:20;8.70;;;5.97;;
4555;SDS011;2290;48.674;9.018;2024-03-17T07:24:47;11.23;;;5.80;;
4555;SDS011;2290;48.674;9.018;2024-03-17T07:27:15;8.27;;;5.57;;
4555;SDS011;2290;48.674;9.018;2024-03-17T07:29:41;7.93;;;5.43;;
4555;SDS011;2290;48.674;9.018;2024-03-17T07:32:08;8.93;;;5.23;;
4555;SDS011;2290;48.674;9.018;2024-03-17T07:34:33;8.70;;;5.67;;
4555;SDS011;2290;48.674;9.018;2024-03-17T07:37:00;9.10;;;6.90;;
4555;SDS011;2290;48.674;9.018;2024-03-17T07:39:31;10.37;;;6.87;;
4555;SDS011;2290;48.674;9.018;2024-03-17T07:42:00;12.90;;;8.27;;
4555;SDS011;2290;48.674;9.018;2024-03-17T07:44:26;11.63;;;8.40;;
4555;SDS011;2290;48.674;9.018;2024-03-17T07:46:58;16.77;;;10.00;;
4555;SDS011;2290;48.674;9.018;2024-03-17T07:49:26;15.13;;;9.93;;
4555;SDS011;2290;48.674;9.018;2024-03-17T07:51:52;13.70;;;8.53;;
4555;SDS011;2290;48.674;9.018;2024-03-17T07:54:19;13.87;;;8.47;;
4555;SDS011;2290;48.674;9.018;2024-03-17T07:56:47;11.27;;;7.53;;
4555;SDS011;2290;48.674;9.018;2024-03-17T07:59:13;11.87;;;6.47;;
4555;SDS011;2290;48.674;9.018;2024-03-17T08:01:42;10.23;;;6.20;;
4555;SDS011;2290;48.674;9.018;2024-03-17T08:04:08;7.77;;;5.70;;
4555;SDS011;2290;48.674;9.018;2024-03-17T08:06:36;7.17;;;4.87;;
4555;SDS011;2290;48.674;9.018;2024-03-17T08:09:09;7.00;;;5.47;;
4555;SDS011;2290;48.674;9.018;2024-03-17T08:11:37;8.40;;;5.53;;
4555;SDS011;2290;48.674;9.018;2024-03-17T08:14:03;6.30;;;4.90;;
4555;SDS011;2290;48.674;9.018;2024-03-17T08:16:30;7.07;;;5.40;;
4555;SDS011;2290;48.674;9.018;2024-03-17T08:18:59;7.97;;;5.30;;
4555;SDS011;2290;48.674;9.018;2024-03-17T08:21:24;8.27;;;5.23;;
4555;SDS011;2290;48.674;9.018;2024-03-17T08:23:51;6.90;;;5.27;;
4555;SDS011;2290;48.674;9.018;2024-03-17T08:26:16;8.33;;;5.10;;
4555;SDS011;2290;48.674;9.018;2024-03-17T08:28:43;8.70;;;5.53;;
4555;SDS011;2290;48.674;9.018;2024-03-17T08:31:12;7.67;;;5.20;;
4555;SDS011;2290;48.674;9.018;2024-03-17T08:33:37;7.40;;;5.17;;
4555;SDS011;2290;48.674;9.018;2024-03-17T08:36:05;7.33;;;5.40;;
4555;SDS011;2290;48.674;9.018;2024-03-17T08:38:33;8.90;;;4.77;;
4555;SDS011;2290;48.674;9.018;2024-03-17T08:41:03;8.60;;;5.40;;
4555;SDS011;2290;48.674;9.018;2024-03-17T08:43:30;6.30;;;4.70;;
4555;SDS011;2290;48.674;9.018;2024-03-17T08:45:58;7.27;;;4.90;;
4555;SDS011;2290;48.674;9.018;2024-03-17T08:48:26;10.20;;;4.50;;
4555;SDS011;2290;48.674;9.018;2024-03-17T08:50:54;6.80;;;4.40;;
4555;SDS011;2290;48.674;9.018;2024-03-17T08:53:22;6.50;;;4.87;;
4555;SDS011;2290;48.674;9.018;2024-03-17T08:55:49;5.50;;;4.10;;
4555;SDS011;2290;48.674;9.018;2024-03-17T08:58:14;7.50;;;4.17;;
4555;SDS011;2290;48.674;9.018;2024-03-17T09:00:42;4.97;;;3.50;;
4555;SDS011;2290;48.674;9.018;2024-03-17T09:03:08;4.90;;;3.90;;
4555;SDS011;2290;48.674;9.018;2024-03-17T09:05:37;3.93;;;3.20;;
4555;SDS011;2290;48.674;9.018;2024-03-17T09:08:05;6.03;;;3.30;;
4555;SDS011;2290;48.674;9.018;2024-03-17T09:10:43;5.40;;;3.53;;
4555;SDS011;2290;48.674;9.018;2024-03-17T09:13:13;3.80;;;3.30;;
4555;SDS011;2290;48.674;9.018;2024-03-17T09:18:26;3.60;;;2.73;;
4555;SDS011;2290;48.674;9.018;2024-03-17T09:21:05;5.30;;;3.00;;
4555;SDS011;2290;48.674;9.018;2024-03-17T09:23:36;6.13;;;3.30;;
4555;SDS011;2290;48.674;9.018;2024-03-17T09:26:05;6.97;;;3.37;;
4555;SDS011;2290;48.674;9.018;2024-03-17T09:28:41;2.90;;;2.60;;
4555;SDS011;2290;48.674;9.018;2024-03-17T09:31:09;3.90;;;2.60;;
4555;SDS011;2290;48.674;9.018;2024-03-17T09:33:36;5.23;;;2.80;;
4555;SDS011;2290;48.674;9.018;2024-03-17T09:36:06;3.70;;;2.73;;
4555;SDS011;2290;48.674;9.018;2024-03-17T09:38:33;4.10;;;3.17;;
4555;SDS011;2290;48.674;9.018;2024-03-17T09:41:00;4.40;;;3.13;;
4555;SDS011;2290;48.674;9.018;2024-03-17T09:43:28;4.53;;;3.03;;
4555;SDS011;2290;48.674;9.018;2024-03-17T09:45:56;4.67;;;3.10;;
4555;SDS011;2290;48.674;9.018;2024-03-17T09:48:25;3.30;;;2.90;;
4555;SDS011;2290;48.674;9.018;2024-03-17T09:51:00;3.97;;;3.40;;
4555;SDS011;2290;48.674;9.018;2024-03-17T09:53:27;3.40;;;3.10;;
4555;SDS011;2290;48.674;9.018;2024-03-17T09:55:59;5.00;;;3.50;;
4555;SDS011;2290;48.674;9.018;2024-03-17T09:58:24;4.60;;;3.30;;
4555;SDS011;2290;48.674;9.018;2024-03-17T10:00:50;4.03;;;2.83;;
4555;SDS011;2290;48.674;9.018;2024-03-17T10:06:11;3.80;;;3.17;;
4555;SDS011;2290;48.674;9.018;2024-03-17T10:08:48;4.53;;;3.10;;
4555;SDS011;2290;48.674;9.018;2024-03-17T10:11:18;6.23;;;3.00;;
4555;SDS011;2290;48.674;9.018;2024-03-17T10:13:58;4.40;;;2.63;;
4555;SDS011;2290;48.674;9.018;2024-03-17T10:16:25;4.90;;;2.60;;
4555;SDS011;2290;48.674;9.018;2024-03-17T10:21:45;4.07;;;2.80;;
4555;SDS011;2290;48.674;9.018;2024-03-17T10:24:21;2.90;;;2.40;;
4555;SDS011;2290;48.674;9.018;2024-03-17T10:26:47;3.43;;;2.50;;
4555;SDS011;2290;48.674;9.018;2024-03-17T10:29:31;3.20;;;2.47;;
4555;SDS011;2290;48.674;9.018;2024-03-17T10:32:01;3.27;;;2.57;;
4555;SDS011;2290;48.674;9.018;2024-03-17T10:34:29;5.17;;;3.20;;
4555;SDS011;2290;48.674;9.018;2024-03-17T10:37:10;3.17;;;2.53;;
4555;SDS011;2290;48.674;9.018;2024-03-17T10:39:40;4.83;;;2.33;;
4555;SDS011;2290;48.674;9.018;2024-03-17T10:42:07;6.20;;;2.97;;
4555;SDS011;2290;48.674;9.018;2024-03-17T10:44:35;7.77;;;2.80;;
4555;SDS011;2290;48.674;9.018;2024-03-17T10:47:02;3.57;;;2.47;;
4555;SDS011;2290;48.674;9.018;2024-03-17T10:49:35;3.97;;;2.77;;
4555;SDS011;2290;48.674;9.018;2024-03-17T10:52:04;3.97;;;2.57;;
4555;SDS011;2290;48.674;9.018;2024-03-17T10:54:31;3.10;;;2.50;;
4555;SDS011;2290;48.674;9.018;2024-03-17T11:00:08;2.97;;;2.20;;
4555;SDS011;2290;48.674;9.018;2024-03-17T11:02:37;2.93;;;2.30;;
4555;SDS011;2290;48.674;9.018;2024-03-17T11:05:07;4.20;;;2.43;;
4555;SDS011;2290;48.674;9.018;2024-03-17T11:07:39;3.60;;;2.20;;
4555;SDS011;2290;48.674;9.018;2024-03-17T11:10:12;4.23;;;2.10;;
4555;SDS011;2290;48.674;9.018;2024-03-17T11:12:53;2.50;;;1.60;;
4555;SDS011;2290;48.674;9.018;2024-03-17T11:20:38;1.57;;;1.40;;
4555;SDS011;2290;48.674;9.018;2024-03-17T11:23:07;2.63;;;1.80;;
4555;SDS011;2290;48.674;9.018;2024-03-17T11:25:37;3.00;;;1.70;;
4555;SDS011;2290;48.674;9.018;2024-03-17T11:28:07;3.03;;;1.70;;
4555;SDS011;2290;48.674;9.018;2024-03-17T11:38:50;2.30;;;2.10;;
4555;SDS011;2290;48.674;9.018;2024-03-17T11:46:46;1.70;;;1.60;;
4555;SDS011;2290;48.674;9.018;2024-03-17T11:49:18;2.50;;;1.90;;
4555;SDS011;2290;48.674;9.018;2024-03-17T11:51:46;4.80;;;2.10;;
4555;SDS011;2290;48.674;9.018;2024-03-17T11:54:15;3.20;;;2.00;;
4555;SDS011;2290;48.674;9.018;2024-03-17T11:56:48;2.40;;;1.90;;
4555;SDS011;2290;48.674;9.018;2024-03-17T11:59:15;2.77;;;1.70;;
4555;SDS011;2290;48.674;9.018;2024-03-17T12:01:44;2.63;;;1.80;;
4555;SDS011;2290;48.674;9.018;2024-03-17T12:04:14;1.83;;;1.70;;
4555;SDS011;2290;48.674;9.018;2024-03-17T12:07:01;2.07;;;1.70;;
4555;SDS011;2290;48.674;9.018;2024-03-17T12:09:30;3.37;;;2.10;;
4555;SDS011;2290;48.674;9.018;2024-03-17T12:14:26;2.20;;;1.67;;
4555;SDS011;2290;48.674;9.018;2024-03-17T12:16:58;2.33;;;1.73;;
4555;SDS011;2290;48.674;9.018;2024-03-17T12:19:26;1.90;;;1.63;;
4555;SDS011;2290;48.674;9.018;2024-03-17T12:21:53;4.30;;;2.30;;
4555;SDS011;2290;48.674;9.018;2024-03-17T12:24:22;3.33;;;1.97;;
4555;SDS011;2290;48.674;9.018;2024-03-17T12:26:49;2.27;;;1.93;;
4555;SDS011;2290;48.674;9.018;2024-03-17T12:29:23;4.20;;;2.20;;
4555;SDS011;2290;48.674;9.018;2024-03-17T12:31:52;6.07;;;2.30;;
4555;SDS011;2290;48.674;9.018;2024-03-17T12:34:19;2.53;;;2.00;;
4555;SDS011;2290;48.674;9.018;2024-03-17T12:36:46;3.20;;;1.90;;
4555;SDS011;2290;48.674;9.018;2024-03-17T12:39:16;2.73;;;2.07;;
4555;SDS011;2290;48.674;9.018;2024-03-17T12:41:45;3.90;;;2.10;;
4555;SDS011;2290;48.674;9.018;2024-03-17T12:44:36;2.80;;;1.93;;
4555;SDS011;2290;48.674;9.018;2024-03-17T12:47:07;2.13;;;1.77;;
4555;SDS011;2290;48.674;9.018;2024-03-17T12:49:43;1.63;;;1.53;;
4555;SDS011;2290;48.674;9.018;2024-03-17T12:52:24;2.27;;;1.80;;
4555;SDS011;2290;48.674;9.018;2024-03-17T12:55:03;2.13;;;1.80;;
4555;SDS011;2290;48.674;9.018;2024-03-17T13:01:09;3.40;;;2.13;;
4555;SDS011;2290;48.674;9.018;2024-03-17T13:03:38;2.20;;;2.00;;
4555;SDS011;2290;48.674;9.018;2024-03-17T13:06:08;5.63;;;3.00;;
4555;SDS011;2290;48.674;9.018;2024-03-17T13:08:35;2.93;;;1.90;;
4555;SDS011;2290;48.674;9.018;2024-03-17T13:11:01;2.93;;;1.80;;
4555;SDS011;2290;48.674;9.018;2024-03-17T13:13:34;2.10;;;1.90;;
4555;SDS011;2290;48.674;9.018;2024-03-17T13:16:01;2.83;;;1.97;;
4555;SDS011;2290;48.674;9.018;2024-03-17T13:18:27;5.77;;;2.30;;
4555;SDS011;2290;48.674;9.018;2024-03-17T13:20:53;3.53;;;1.87;;
4555;SDS011;2290;48.674;9.018;2024-03-17T13:23:19;3.30;;;1.80;;
4555;SDS011;2290;48.674;9.018;2024-03-17T13:25:47;2.63;;;1.70;;
4555;SDS011;2290;48.674;9.018;2024-03-17T13:28:13;2.47;;;1.60;;
4555;SDS011;2290;48.674;9.018;2024-03-17T13:30:39;2.00;;;1.50;;
4555;SDS011;2290;48.674;9.018;2024-03-17T13:33:08;2.63;;;1.70;;
4555;SDS011;2290;48.674;9.018;2024-03-17T13:35:36;2.13;;;1.70;;
4555;SDS011;2290;48.674;9.018;2024-03-17T13:38:05;2.13;;;1.73;;
4555;SDS011;2290;48.674;9.018;2024-03-17T13:40:32;3.93;;;1.83;;
4555;SDS011;2290;48.674;9.018;2024-03-17T13:42:58;3.13;;;2.03;;
4555;SDS011;2290;48.674;9.018;2024-03-17T13:45:27;2.50;;;1.80;;
4555;SDS011;2290;48.674;9.018;2024-03-17T13:48:02;2.30;;;1.70;;
4555;SDS011;2290;48.674;9.018;2024-03-17T13:50:29;2.10;;;1.80;;
4555;SDS011;2290;48.674;9.018;2024-03-17T13:52:55;2.37;;;1.90;;
4555;SDS011;2290;48.674;9.018;2024-03-17T13:55:22;2.60;;;1.67;;
4555;SDS011;2290;48.674;9.018;2024-03-17T13:57:54;2.93;;;1.80;;
4555;SDS011;2290;48.674;9.018;2024-03-17T14:00:25;1.80;;;1.60;;
4555;SDS011;2290;48.674;9.018;2024-03-17T14:02:52;2.40;;;1.93;;
4555;SDS011;2290;48.674;9.018;2024-03-17T14:05:20;1.40;;;1.30;;
4555;SDS011;2290;48.674;9.018;2024-03-17T14:07:46;1.73;;;1.37;;
4555;SDS011;2290;48.674;9.018;2024-03-17T14:10:13;1.80;;;1.70;;
4555;SDS011;2290;48.674;9.018;2024-03-17T14:12:44;3.30;;;1.50;;
4555;SDS011;2290;48.674;9.018;2024-03-17T14:15:15;3.30;;;1.67;;
4555;SDS011;2290;48.674;9.018;2024-03-17T14:17:41;3.13;;;1.60;;
4555;SDS011;2290;48.674;9.018;2024-03-17T14:20:12;2.97;;;2.27;;
4555;SDS011;2290;48.674;9.018;2024-03-17T14:22:39;1.93;;;1.57;;
4555;SDS011;2290;48.674;9.018;2024-03-17T14:25:12;1.60;;;1.50;;
4555;SDS011;2290;48.674;9.018;2024-03-17T14:27:40;2.50;;;1.60;;
4555;SDS011;2290;48.674;9.018;2024-03-17T14:30:06;2.50;;;1.47;;
4555;SDS011;2290;48.674;9.018;2024-03-17T14:32:32;1.50;;;1.40;;
4555;SDS011;2290;48.674;9.018;2024-03-17T14:34:58;1.83;;;1.50;;
4555;SDS011;2290;48.674;9.018;2024-03-17T14:37:25;2.67;;;1.40;;
4555;SDS011;2290;48.674;9.018;2024-03-17T14:39:51;4.27;;;1.70;;
4555;SDS011;2290;48.674;9.018;2024-03-17T14:42:18;1.40;;;1.30;;
4555;SDS011;2290;48.674;9.018;2024-03-17T14:44:47;2.30;;;1.20;;
4555;SDS011;2290;48.674;9.018;2024-03-17T14:47:12;3.70;;;1.23;;
4555;SDS011;2290;48.674;9.018;2024-03-17T14:49:40;3.20;;;1.80;;
4555;SDS011;2290;48.674;9.018;2024-03-17T14:52:06;1.73;;;1.30;;
4555;SDS011;2290;48.674;9.018;2024-03-17T14:54:33;1.33;;;1.10;;
4555;SDS011;2290;48.674;9.018;2024-03-17T14:56:59;2.53;;;1.40;;
4555;SDS011;2290;48.674;9.018;2024-03-17T14:59:25;3.80;;;1.10;;
4555;SDS011;2290;48.674;9.018;2024-03-17T15:01:55;2.10;;;1.20;;
4555;SDS011;2290;48.674;9.018;2024-03-17T15:04:21;4.20;;;1.40;;
4555;SDS011;2290;48.674;9.018;2024-03-17T15:06:48;1.23;;;1.10;;
4555;SDS011;2290;48.674;9.018;2024-03-17T15:09:13;3.27;;;1.40;;
4555;SDS011;2290;48.674;9.018;2024-03-17T15:11:45;1.20;;;1.10;;
4555;SDS011;2290;48.674;9.018;2024-03-17T15:14:13;1.90;;;1.33;;
4555;SDS011;2290;48.674;9.018;2024-03-17T15:16:39;1.30;;;1.10;;
4555;SDS011;2290;48.674;9.018;2024-03-17T15:19:05;1.30;;;1.00;;
4555;SDS011;2290;48.674;9.018;2024-03-17T15:21:31;4.60;;;1.43;;
4555;SDS011;2290;48.674;9.018;2024-03-17T15:23:57;2.67;;;1.70;;
4555;SDS011;2290;48.674;9.018;2024-03-17T15:26:23;2.97;;;1.50;;
4555;SDS011;2290;48.674;9.018;2024-03-17T15:28:49;1.33;;;1.10;;
4555;SDS011;2290;48.674;9.018;2024-03-17T15:31:16;1.50;;;1.10;;
4555;SDS011;2290;48.674;9.018;2024-03-17T15:33:43;2.13;;;1.63;;
4555;SDS011;2290;48.674;9.018;2024-03-17T15:36:09;5.00;;;1.40;;
4555;SDS011;2290;48.674;9.018;2024-03-17T15:38:37;2.13;;;1.20;;
4555;SDS011;2290;48.674;9.018;2024-03-17T15:41:06;2.67;;;1.40;;
4555;SDS011;2290;48.674;9.018;2024-03-17T15:43:38;1.50;;;1.23;;
4555;SDS011;2290;48.674;9.018;2024-03-17T15:46:38;3.97;;;1.00;;
4555;SDS011;2290;48.674;9.018;2024-03-17T15:48:58;2.43;;;1.37;;
4555;SDS011;2290;48.674;9.018;2024-03-17T15:51:25;1.43;;;1.10;;
4555;SDS011;2290;48.674;9.018;2024-03-17T15:53:50;1.97;;;1.20;;
4555;SDS011;2290;48.674;9.018;2024-03-17T15:56:18;3.00;;;1.77;;
4555;SDS011;2290;48.674;9.018;2024-03-17T15:58:44;1.17;;;1.00;;